Time;durP1;ratioP1;P1;durP2;ratioP2;P2;SDS_P1;SDS_P2;PMS_P1;PMS_P2;Temp;Humidity;BMP_temperature;BMP_pressure;BME280_temperature;BME280_humidity;BME280_pressure;Samples;Min_cycle;Max_cycle;Signal;HPM_P1;HPM_P2
2020/12/27 00:01:13;;;;;;;11.23;7.93;;;6.10;86.40;;;;;;5047516;28;20033;-71
2020/12/27 00:03:38;;;;;;;14.73;9.23;;;6.10;86.30;;;;;;5050948;28;20597;-71
2020/12/27 00:06:04;;;;;;;13.30;8.07;;;6.10;86.30;;;;;;5058629;28;20075;-73
2020/12/27 00:08:29;;;;;;;11.02;8.32;;;6.10;86.40;;;;;;5068948;28;20028;-74
2020/12/27 00:10:55;;;;;;;11.05;8.35;;;6.10;86.30;;;;;;5067416;28;20660;-73
2020/12/27 00:13:21;;;;;;;12.48;8.82;;;6.10;86.40;;;;;;5045418;28;20068;-73
2020/12/27 00:15:46;;;;;;;13.77;8.73;;;6.10;86.20;;;;;;5047164;28;20029;-72
2020/12/27 00:18:12;;;;;;;11.40;8.25;;;6.10;86.10;;;;;;5048353;28;20080;-73
2020/12/27 00:20:37;;;;;;;11.90;8.43;;;6.10;86.30;;;;;;5048680;28;20545;-76
2020/12/27 00:23:03;;;;;;;11.85;8.82;;;6.10;86.30;;;;;;5046399;28;20036;-73
2020/12/27 00:25:30;;;;;;;13.50;8.98;;;6.10;86.40;;;;;;5050463;28;20048;-72
2020/12/27 00:27:56;;;;;;;15.38;9.27;;;6.10;86.40;;;;;;5047232;28;20025;-72
2020/12/27 00:30:22;;;;;;;12.95;8.73;;;6.00;86.40;;;;;;5050323;28;20438;-73
2020/12/27 00:32:47;;;;;;;12.93;9.63;;;6.00;86.40;;;;;;5047780;28;20037;-72
2020/12/27 00:35:13;;;;;;;12.75;9.52;;;6.00;86.40;;;;;;5046156;28;20634;-77
2020/12/27 00:37:38;;;;;;;13.18;9.18;;;6.00;86.60;;;;;;5055659;28;20056;-73
2020/12/27 00:40:04;;;;;;;13.68;9.55;;;6.00;86.60;;;;;;5065903;28;20111;-73
2020/12/27 00:42:30;;;;;;;12.85;9.73;;;6.00;86.60;;;;;;5063358;28;20037;-73
2020/12/27 00:44:56;;;;;;;14.70;9.70;;;5.90;86.70;;;;;;5045936;28;20032;-73
2020/12/27 00:47:21;;;;;;;14.38;9.88;;;6.00;86.70;;;;;;5044513;28;20029;-76
2020/12/27 00:49:47;;;;;;;13.82;10.05;;;5.90;86.70;;;;;;5043930;28;20053;-73
2020/12/27 00:52:13;;;;;;;17.38;11.05;;;5.90;86.70;;;;;;5046699;28;20032;-73
2020/12/27 00:54:38;;;;;;;15.13;9.98;;;5.90;86.90;;;;;;5045755;28;20038;-73
2020/12/27 00:57:04;;;;;;;14.43;9.38;;;5.90;86.90;;;;;;5040787;28;20090;-76
2020/12/27 00:59:30;;;;;;;16.75;10.18;;;5.90;87.00;;;;;;5049093;28;20043;-74
2020/12/27 01:01:56;;;;;;;13.35;9.52;;;5.90;87.00;;;;;;5048141;28;20099;-74
2020/12/27 01:04:22;;;;;;;14.68;9.45;;;5.90;86.90;;;;;;5043351;28;20033;-73
2020/12/27 01:06:48;;;;;;;13.88;9.88;;;5.90;86.90;;;;;;5047300;28;20112;-74
2020/12/27 01:09:15;;;;;;;14.52;9.82;;;5.90;86.80;;;;;;5042883;28;20541;-73
2020/12/27 01:11:40;;;;;;;12.65;9.70;;;5.90;86.90;;;;;;5047451;28;20031;-73
2020/12/27 01:14:06;;;;;;;14.10;10.27;;;5.90;86.90;;;;;;5043618;28;20025;-73
2020/12/27 01:16:32;;;;;;;15.98;9.65;;;5.90;86.90;;;;;;5040976;28;20086;-76
2020/12/27 01:18:57;;;;;;;14.73;10.40;;;5.90;86.90;;;;;;5041148;28;20043;-74
2020/12/27 01:21:24;;;;;;;14.45;9.25;;;6.00;87.00;;;;;;5044189;28;20083;-73
2020/12/27 01:23:50;;;;;;;12.93;8.30;;;6.00;87.00;;;;;;5041482;28;20112;-74
2020/12/27 01:26:16;;;;;;;15.23;10.32;;;6.00;86.80;;;;;;5045372;28;20052;-73
2020/12/27 01:28:42;;;;;;;13.20;9.23;;;6.00;86.90;;;;;;5042863;28;20489;-73
2020/12/27 01:31:07;;;;;;;12.35;8.15;;;6.00;86.90;;;;;;5043913;28;20033;-74
2020/12/27 01:33:33;;;;;;;12.65;8.27;;;6.00;86.80;;;;;;5044656;28;21893;-73
2020/12/27 01:35:58;;;;;;;11.50;8.35;;;6.10;86.80;;;;;;5047142;28;20037;-72
2020/12/27 01:38:24;;;;;;;9.93;8.15;;;6.10;86.70;;;;;;5043762;28;20128;-77
2020/12/27 01:40:49;;;;;;;12.55;8.77;;;6.10;86.70;;;;;;5064813;28;20084;-74
2020/12/27 01:43:15;;;;;;;12.25;8.05;;;6.10;86.50;;;;;;5046055;28;20480;-77
2020/12/27 01:45:41;;;;;;;12.98;8.38;;;6.10;86.60;;;;;;5047827;28;20048;-73
2020/12/27 01:48:13;;;;;;;12.55;8.10;;;6.10;86.50;;;;;;5048725;28;20098;-73
2020/12/27 01:50:38;;;;;;;10.07;7.20;;;6.10;86.60;;;;;;5067865;28;20105;-73
2020/12/27 01:53:04;;;;;;;10.88;7.22;;;6.10;86.60;;;;;;5063805;28;20032;-75
2020/12/27 01:55:31;;;;;;;11.75;8.05;;;6.10;86.50;;;;;;5066937;28;20072;-73
2020/12/27 01:58:17;;;;;;;10.32;7.15;;;6.10;86.60;;;;;;5066169;28;20479;-73
2020/12/27 02:00:43;;;;;;;9.85;6.97;;;6.10;86.40;;;;;;5061571;28;20182;-74
2020/12/27 02:03:10;;;;;;;10.90;7.10;;;6.10;86.30;;;;;;5063177;28;20029;-74
2020/12/27 02:05:36;;;;;;;10.82;6.70;;;6.10;86.50;;;;;;5067296;28;20043;-74
2020/12/27 02:08:03;;;;;;;10.45;6.88;;;6.10;86.50;;;;;;5065058;28;20036;-73
2020/12/27 02:10:31;;;;;;;11.00;7.55;;;6.20;86.50;;;;;;5055703;28;20041;-73
2020/12/27 02:12:57;;;;;;;9.32;6.78;;;6.10;86.50;;;;;;5065899;28;20037;-73
2020/12/27 02:15:23;;;;;;;11.80;7.22;;;6.10;86.40;;;;;;5063008;28;20774;-75
2020/12/27 02:17:48;;;;;;;10.88;6.30;;;6.10;86.70;;;;;;5064653;28;20360;-75
2020/12/27 02:20:14;;;;;;;11.43;6.70;;;6.20;86.60;;;;;;5065156;28;20114;-74
2020/12/27 02:22:40;;;;;;;14.43;7.00;;;6.20;86.70;;;;;;5067324;28;20050;-74
2020/12/27 02:25:06;;;;;;;10.48;6.68;;;6.10;86.70;;;;;;5062945;28;20032;-75
2020/12/27 02:27:33;;;;;;;10.05;6.32;;;6.10;86.80;;;;;;5065707;28;20039;-80
2020/12/27 02:29:59;;;;;;;10.60;6.13;;;6.10;87.00;;;;;;5056603;28;20041;-74
2020/12/27 02:32:25;;;;;;;9.50;6.05;;;6.10;87.00;;;;;;5046401;28;20086;-74
2020/12/27 02:34:50;;;;;;;9.13;5.80;;;6.10;87.00;;;;;;5065967;28;20024;-75
2020/12/27 02:37:16;;;;;;;9.65;6.07;;;6.10;87.00;;;;;;5063983;28;20032;-77
2020/12/27 02:39:42;;;;;;;8.18;5.72;;;6.10;87.00;;;;;;5062067;28;20041;-73
2020/12/27 02:42:07;;;;;;;10.80;6.55;;;6.10;87.10;;;;;;5064474;28;20544;-73
2020/12/27 02:44:44;;;;;;;10.68;5.75;;;6.10;87.20;;;;;;5066847;28;20033;-73
2020/12/27 02:47:09;;;;;;;9.05;5.93;;;6.10;87.20;;;;;;5061215;28;20033;-74
2020/12/27 02:49:35;;;;;;;10.35;5.90;;;6.10;87.20;;;;;;5064336;28;20081;-73
2020/12/27 02:52:00;;;;;;;8.18;5.88;;;6.20;87.20;;;;;;5066849;28;20032;-76
2020/12/27 02:54:26;;;;;;;9.65;5.90;;;6.10;87.20;;;;;;5061098;28;20187;-74
2020/12/27 02:56:52;;;;;;;8.38;5.90;;;6.20;87.20;;;;;;5058431;28;20541;-75
2020/12/27 02:59:19;;;;;;;8.60;5.68;;;6.20;87.00;;;;;;5063196;28;20035;-73
2020/12/27 03:01:45;;;;;;;8.02;5.60;;;6.20;87.00;;;;;;5063948;28;20037;-73
2020/12/27 03:04:10;;;;;;;8.57;5.32;;;6.20;87.20;;;;;;5064802;28;20032;-73
2020/12/27 03:06:36;;;;;;;9.18;5.22;;;6.20;87.10;;;;;;5060795;28;20036;-73
2020/12/27 03:09:02;;;;;;;8.70;5.45;;;6.20;87.10;;;;;;5062763;28;20037;-77
2020/12/27 03:11:27;;;;;;;8.98;5.40;;;6.20;87.20;;;;;;5057815;28;20132;-73
2020/12/27 03:13:54;;;;;;;8.35;5.47;;;6.20;87.30;;;;;;5048767;28;20049;-75
2020/12/27 03:16:20;;;;;;;8.85;5.85;;;6.20;87.40;;;;;;5062242;28;20040;-73
2020/12/27 03:18:46;;;;;;;8.60;5.32;;;6.30;87.20;;;;;;5057435;28;20490;-75
2020/12/27 03:21:12;;;;;;;7.50;5.45;;;6.30;87.30;;;;;;5059352;28;20047;-74
2020/12/27 03:23:38;;;;;;;8.65;5.40;;;6.30;87.00;;;;;;5066407;28;20033;-74
2020/12/27 03:26:04;;;;;;;8.07;5.88;;;6.30;87.00;;;;;;5042763;28;20049;-74
2020/12/27 03:28:29;;;;;;;7.28;4.65;;;6.30;87.00;;;;;;5039640;28;20218;-73
2020/12/27 03:30:55;;;;;;;7.55;4.45;;;6.30;86.90;;;;;;5064289;28;20091;-73
2020/12/27 03:33:20;;;;;;;8.32;4.93;;;6.30;86.90;;;;;;5067862;28;20484;-74
2020/12/27 03:35:46;;;;;;;8.18;4.60;;;6.30;86.80;;;;;;5064453;28;20124;-74
2020/12/27 03:38:12;;;;;;;7.45;4.20;;;6.40;86.60;;;;;;5065956;28;20040;-73
2020/12/27 03:40:38;;;;;;;7.40;4.40;;;6.40;86.60;;;;;;5065795;28;20497;-74
2020/12/27 03:43:03;;;;;;;9.35;4.80;;;6.30;86.70;;;;;;5044740;28;20551;-72
2020/12/27 03:45:29;;;;;;;8.30;4.70;;;6.30;86.60;;;;;;5038219;28;20042;-73
2020/12/27 03:47:55;;;;;;;7.85;4.53;;;6.30;86.70;;;;;;5045696;28;20120;-76
2020/12/27 03:50:23;;;;;;;7.47;4.20;;;6.30;86.60;;;;;;5043903;28;20510;-74
2020/12/27 03:52:49;;;;;;;8.07;4.10;;;6.30;86.70;;;;;;5037369;28;20041;-74
2020/12/27 03:55:15;;;;;;;7.72;4.18;;;6.40;86.60;;;;;;5049399;28;20419;-76
2020/12/27 03:57:41;;;;;;;6.55;4.25;;;6.40;86.70;;;;;;5058404;28;20029;-73
2020/12/27 04:00:06;;;;;;;6.68;4.30;;;6.40;86.70;;;;;;5049241;28;20475;-73
2020/12/27 04:02:32;;;;;;;7.10;4.03;;;6.40;87.10;;;;;;5049581;28;20149;-73
2020/12/27 04:04:57;;;;;;;8.48;4.53;;;6.40;87.60;;;;;;5045074;28;20025;-73
2020/12/27 04:07:23;;;;;;;7.50;3.67;;;6.30;87.80;;;;;;5052870;28;20036;-73
2020/12/27 04:09:49;;;;;;;6.88;4.22;;;6.20;88.10;;;;;;5054113;28;20115;-74
2020/12/27 04:12:15;;;;;;;7.35;4.45;;;6.30;88.30;;;;;;5057390;28;20037;-73
2020/12/27 04:14:40;;;;;;;11.05;3.90;;;6.20;88.60;;;;;;5060317;28;20033;-73
2020/12/27 04:17:07;;;;;;;7.40;4.55;;;6.20;88.80;;;;;;5041987;28;20025;-74
2020/12/27 04:19:32;;;;;;;7.32;4.50;;;6.10;88.80;;;;;;5053153;28;20048;-73
2020/12/27 04:21:58;;;;;;;7.18;4.00;;;6.20;89.10;;;;;;5048115;28;20041;-73
2020/12/27 04:24:24;;;;;;;7.97;4.22;;;6.10;89.30;;;;;;5056015;28;20506;-73
2020/12/27 04:26:49;;;;;;;6.07;3.92;;;6.10;89.40;;;;;;5049776;28;20029;-73
2020/12/27 04:29:15;;;;;;;5.75;3.40;;;6.10;89.50;;;;;;5048326;28;20125;-73
2020/12/27 04:31:41;;;;;;;6.10;3.40;;;6.10;89.50;;;;;;5059126;28;20333;-77
2020/12/27 04:34:06;;;;;;;5.22;3.50;;;6.10;89.40;;;;;;5050131;28;20036;-73
2020/12/27 04:36:32;;;;;;;5.57;3.65;;;6.20;89.40;;;;;;5056307;28;20025;-73
2020/12/27 04:38:58;;;;;;;4.72;2.95;;;6.10;89.50;;;;;;5047235;28;20484;-73
2020/12/27 04:41:24;;;;;;;5.43;3.10;;;6.20;89.50;;;;;;5043434;28;20029;-74
2020/12/27 04:43:50;;;;;;;4.70;2.53;;;6.20;89.60;;;;;;5049376;28;20041;-74
2020/12/27 04:46:16;;;;;;;6.60;3.47;;;6.20;89.70;;;;;;5052170;28;20033;-74
2020/12/27 04:48:44;;;;;;;4.28;2.45;;;6.20;89.70;;;;;;5062677;28;20037;-77
2020/12/27 04:51:12;;;;;;;4.85;3.00;;;6.20;89.70;;;;;;5046515;28;20563;-73
2020/12/27 04:53:39;;;;;;;3.95;2.50;;;6.20;90.00;;;;;;5049246;28;20373;-73
2020/12/27 04:56:07;;;;;;;5.10;2.75;;;6.10;90.10;;;;;;5045283;28;20510;-73
2020/12/27 04:58:33;;;;;;;3.58;2.22;;;6.10;90.10;;;;;;5047420;28;20043;-72
2020/12/27 05:01:00;;;;;;;5.03;2.30;;;6.10;90.20;;;;;;5035058;28;20116;-73
2020/12/27 05:03:26;;;;;;;3.60;2.33;;;6.10;90.40;;;;;;5052905;28;20040;-73
2020/12/27 05:05:53;;;;;;;4.00;2.30;;;6.10;90.30;;;;;;5050102;28;20044;-74
2020/12/27 05:08:19;;;;;;;5.32;2.40;;;6.10;90.50;;;;;;5048214;28;20048;-76
2020/12/27 05:10:46;;;;;;;3.30;2.00;;;6.10;90.60;;;;;;5046617;28;20044;-73
2020/12/27 05:13:13;;;;;;;2.83;2.00;;;6.20;90.60;;;;;;5052793;28;20047;-73
2020/12/27 05:15:39;;;;;;;2.92;2.00;;;6.20;90.50;;;;;;5050726;28;20041;-73
2020/12/27 05:18:06;;;;;;;3.72;2.00;;;6.20;90.50;;;;;;5060870;28;20043;-76
2020/12/27 05:20:33;;;;;;;2.75;1.73;;;6.20;90.50;;;;;;5060399;28;20094;-74
2020/12/27 05:23:09;;;;;;;2.63;1.70;;;6.20;90.20;;;;;;5068202;28;20033;-73
2020/12/27 05:25:40;;;;;;;3.08;1.67;;;6.20;90.40;;;;;;5065115;28;20387;-77
2020/12/27 05:28:08;;;;;;;4.03;1.90;;;6.20;90.40;;;;;;5059654;28;20029;-74
2020/12/27 05:30:34;;;;;;;2.38;1.63;;;6.20;90.60;;;;;;5062865;28;20053;-75
2020/12/27 05:33:00;;;;;;;3.92;1.98;;;6.30;90.40;;;;;;5063772;28;20036;-76
2020/12/27 05:35:26;;;;;;;3.05;1.80;;;6.30;90.50;;;;;;5063661;28;20043;-74
2020/12/27 05:37:52;;;;;;;2.25;1.70;;;6.30;90.50;;;;;;5062469;28;20024;-74
2020/12/27 05:40:19;;;;;;;3.38;1.80;;;6.30;90.50;;;;;;5054297;28;20083;-73
2020/12/27 05:42:45;;;;;;;3.42;1.65;;;6.30;90.50;;;;;;5068343;28;20055;-75
2020/12/27 05:45:19;;;;;;;3.53;1.60;;;6.30;90.60;;;;;;5065990;28;20119;-72
2020/12/27 05:47:48;;;;;;;2.15;1.58;;;6.30;90.60;;;;;;5070054;28;20044;-75
2020/12/27 05:50:16;;;;;;;2.88;1.70;;;6.30;90.60;;;;;;5067321;28;20028;-74
2020/12/27 05:52:47;;;;;;;3.38;1.48;;;6.40;90.50;;;;;;5068487;28;20040;-73
2020/12/27 05:55:18;;;;;;;3.55;1.58;;;6.40;90.30;;;;;;5063044;28;20045;-73
2020/12/27 05:57:54;;;;;;;1.75;1.50;;;6.40;90.10;;;;;;5066044;28;20139;-73
2020/12/27 06:00:22;;;;;;;3.58;1.90;;;6.40;90.20;;;;;;5066953;28;20483;-73
2020/12/27 06:03:01;;;;;;;1.92;1.60;;;6.40;90.30;;;;;;5067777;28;20040;-73
2020/12/27 06:05:54;;;;;;;3.90;1.70;;;6.40;90.20;;;;;;5059898;28;20407;-74
2020/12/27 06:08:29;;;;;;;2.80;1.30;;;6.40;90.10;;;;;;5059579;28;20483;-75
2020/12/27 06:10:55;;;;;;;;;;;6.40;90.20;;;;;;5066771;28;20045;-74
2020/12/27 06:13:42;;;;;;;2.05;1.40;;;6.40;90.50;;;;;;5062564;28;19916;-75
2020/12/27 06:16:12;;;;;;;2.00;1.35;;;6.30;90.60;;;;;;5062513;28;20033;-75
2020/12/27 06:18:39;;;;;;;1.98;1.40;;;6.40;90.40;;;;;;5067655;28;20438;-74
2020/12/27 06:21:11;;;;;;;2.95;1.70;;;6.40;90.40;;;;;;5064527;28;20043;-73
2020/12/27 06:23:37;;;;;;;1.88;1.45;;;6.40;90.60;;;;;;5064527;28;20043;-76
2020/12/27 06:26:05;;;;;;;2.08;1.25;;;6.40;90.30;;;;;;5059276;28;20546;-74
2020/12/27 06:28:32;;;;;;;1.98;1.30;;;6.40;90.50;;;;;;5063223;28;20036;-73
2020/12/27 06:31:02;;;;;;;1.75;1.27;;;6.40;90.60;;;;;;5058724;28;20036;-74
2020/12/27 06:33:34;;;;;;;1.75;1.25;;;6.50;90.50;;;;;;5062037;28;20045;-74
2020/12/27 06:36:00;;;;;;;1.50;1.20;;;6.50;90.50;;;;;;5063658;28;20029;-73
2020/12/27 06:38:26;;;;;;;1.58;1.05;;;6.50;90.50;;;;;;5060176;28;20036;-74
2020/12/27 06:40:58;;;;;;;1.50;1.30;;;6.60;90.30;;;;;;5061059;28;20029;-73
2020/12/27 06:43:25;;;;;;;1.67;1.10;;;6.60;90.30;;;;;;5061133;28;20095;-73
2020/12/27 06:45:52;;;;;;;2.15;1.27;;;6.60;90.20;;;;;;5058781;28;20033;-74
2020/12/27 06:48:34;;;;;;;1.75;1.30;;;6.60;90.10;;;;;;5081885;28;20028;-73
2020/12/27 06:51:00;;;;;;;2.15;1.50;;;6.60;90.10;;;;;;5063080;28;20548;-74
2020/12/27 06:53:42;;;;;;;1.90;1.35;;;6.60;90.00;;;;;;5067293;28;20429;-73
2020/12/27 06:56:10;;;;;;;1.95;1.40;;;6.60;90.00;;;;;;5066525;28;20044;-74
2020/12/27 06:58:36;;;;;;;2.60;1.20;;;6.60;90.10;;;;;;5073168;28;20406;-74
2020/12/27 07:01:15;;;;;;;3.40;1.50;;;6.60;90.00;;;;;;5063301;28;20040;-74
2020/12/27 07:03:42;;;;;;;1.42;1.20;;;6.60;90.30;;;;;;5066198;28;20040;-74
2020/12/27 07:06:23;;;;;;;1.70;1.20;;;6.60;90.20;;;;;;5064020;28;20394;-72
2020/12/27 07:08:49;;;;;;;2.65;1.50;;;6.60;90.20;;;;;;5065796;28;20028;-72
2020/12/27 07:11:20;;;;;;;3.33;1.30;;;6.60;90.20;;;;;;5060433;28;20577;-73
2020/12/27 07:13:48;;;;;;;2.45;1.45;;;6.60;90.20;;;;;;5066176;28;20449;-77
2020/12/27 07:16:17;;;;;;;3.83;1.58;;;6.60;90.30;;;;;;5057477;28;20386;-74
2020/12/27 07:18:49;;;;;;;2.67;1.40;;;6.60;90.30;;;;;;5061053;28;20060;-75
2020/12/27 07:21:20;;;;;;;2.53;1.40;;;6.60;90.30;;;;;;5057923;28;20320;-74
2020/12/27 07:24:08;;;;;;;3.22;1.75;;;6.60;90.10;;;;;;5067088;28;20094;-72
2020/12/27 07:26:38;;;;;;;3.40;1.60;;;6.60;90.30;;;;;;5062750;28;20500;-74
2020/12/27 07:29:07;;;;;;;3.92;1.60;;;6.60;90.40;;;;;;5059622;28;20032;-74
2020/12/27 07:31:34;;;;;;;4.90;2.00;;;6.60;90.10;;;;;;5059737;28;20044;-73
2020/12/27 07:34:00;;;;;;;3.70;1.92;;;6.60;89.90;;;;;;5062799;28;20111;-73
2020/12/27 07:36:26;;;;;;;3.28;1.90;;;6.60;90.00;;;;;;5067230;28;20028;-73
2020/12/27 07:39:00;;;;;;;3.22;1.63;;;6.60;90.20;;;;;;5060454;28;20033;-74
2020/12/27 07:41:36;;;;;;;2.55;1.42;;;6.60;90.10;;;;;;5069949;28;21691;-75
2020/12/27 07:44:03;;;;;;;3.45;1.60;;;6.60;90.10;;;;;;5063178;28;20037;-74
2020/12/27 07:46:28;;;;;;;4.40;1.90;;;6.60;90.00;;;;;;5067839;28;20110;-73
2020/12/27 07:48:54;;;;;;;2.95;1.90;;;6.60;89.90;;;;;;5067885;28;20823;-75
2020/12/27 07:51:22;;;;;;;2.63;1.40;;;6.60;90.00;;;;;;5066222;28;20133;-73
2020/12/27 07:53:49;;;;;;;1.90;1.58;;;6.60;89.90;;;;;;5064707;28;20032;-74
2020/12/27 07:56:20;;;;;;;6.68;1.65;;;6.60;90.00;;;;;;5065108;28;20523;-78
2020/12/27 07:58:54;;;;;;;1.88;1.40;;;6.60;90.10;;;;;;5064266;28;20032;-73
2020/12/27 08:01:38;;;;;;;3.50;1.85;;;6.60;90.00;;;;;;5068527;28;20044;-73
2020/12/27 08:04:06;;;;;;;2.23;1.60;;;6.60;89.80;;;;;;5082861;28;20036;-73
2020/12/27 08:06:35;;;;;;;5.28;1.63;;;6.70;89.70;;;;;;5068845;28;20267;-77
2020/12/27 08:09:05;;;;;;;2.85;1.30;;;6.70;89.80;;;;;;5066033;28;20032;-77
2020/12/27 08:11:32;;;;;;;3.90;1.65;;;6.70;89.60;;;;;;5069377;28;20387;-73
2020/12/27 08:14:00;;;;;;;3.67;1.80;;;6.70;89.70;;;;;;5069134;28;20029;-75
2020/12/27 08:16:26;;;;;;;3.58;1.92;;;6.70;89.70;;;;;;5065443;28;20494;-72
2020/12/27 08:19:04;;;;;;;2.13;1.50;;;6.70;89.70;;;;;;5066234;28;20060;-73
2020/12/27 08:21:30;;;;;;;3.35;1.60;;;6.70;89.90;;;;;;5063576;28;20496;-75
2020/12/27 08:23:57;;;;;;;2.50;1.60;;;6.70;89.70;;;;;;5082190;28;20123;-73
2020/12/27 08:26:23;;;;;;;3.40;1.70;;;6.70;89.60;;;;;;5065924;28;20052;-72
2020/12/27 08:28:50;;;;;;;4.00;1.70;;;6.80;89.70;;;;;;5064824;28;20501;-73
2020/12/27 08:31:26;;;;;;;3.65;1.55;;;6.70;89.40;;;;;;5058701;28;20508;-72
2020/12/27 08:34:09;;;;;;;2.55;1.50;;;6.80;89.80;;;;;;5066536;28;20028;-76
2020/12/27 08:36:37;;;;;;;3.92;1.52;;;6.70;89.70;;;;;;5064240;28;20025;-73
2020/12/27 08:39:11;;;;;;;2.45;1.65;;;6.80;90.00;;;;;;5062470;28;20643;-73
2020/12/27 08:41:40;;;;;;;5.35;1.85;;;6.80;90.00;;;;;;5061797;28;20058;-74
2020/12/27 08:44:28;;;;;;;4.13;1.63;;;6.80;89.90;;;;;;5060293;28;20032;-77
2020/12/27 08:46:56;;;;;;;3.92;1.70;;;6.80;90.00;;;;;;5060205;28;20388;-72
2020/12/27 08:49:37;;;;;;;3.47;1.70;;;6.90;89.70;;;;;;5063488;28;20102;-73
2020/12/27 08:52:23;;;;;;;4.18;1.70;;;6.80;89.90;;;;;;5064661;28;20062;-74
2020/12/27 08:55:01;;;;;;;3.85;1.80;;;6.80;89.90;;;;;;5066114;28;20044;-73
2020/12/27 08:57:27;;;;;;;4.07;1.70;;;6.80;90.00;;;;;;5061492;28;20025;-73
2020/12/27 09:00:06;;;;;;;2.53;1.48;;;6.80;90.20;;;;;;5066548;28;20501;-74
2020/12/27 09:02:32;;;;;;;4.40;1.50;;;6.80;90.20;;;;;;5081022;28;20041;-74
2020/12/27 09:05:07;;;;;;;3.28;1.55;;;6.80;90.20;;;;;;5066124;28;20035;-73
2020/12/27 09:07:35;;;;;;;3.10;1.70;;;6.80;90.00;;;;;;5063321;28;20077;-73
2020/12/27 09:10:17;;;;;;;1.73;1.40;;;6.80;90.00;;;;;;5067862;28;20048;-77
2020/12/27 09:13:04;;;;;;;3.15;1.63;;;6.90;90.00;;;;;;5067749;28;20145;-74
2020/12/27 09:15:43;;;;;;;1.83;1.60;;;6.90;89.90;;;;;;5059355;28;20040;-75
2020/12/27 09:18:29;;;;;;;2.30;1.40;;;6.90;89.90;;;;;;5065394;28;20033;-75
2020/12/27 09:21:06;;;;;;;3.15;1.63;;;6.80;89.90;;;;;;5063401;28;20065;-73
2020/12/27 09:23:32;;;;;;;2.63;1.60;;;6.90;90.00;;;;;;5067405;28;20932;-73
2020/12/27 09:26:13;;;;;;;4.20;1.67;;;6.90;89.90;;;;;;5067221;28;20035;-75
2020/12/27 09:28:40;;;;;;;3.03;1.73;;;6.80;90.00;;;;;;5066443;28;20036;-74
2020/12/27 09:31:13;;;;;;;2.17;1.50;;;6.90;89.90;;;;;;5080710;28;20135;-74
2020/12/27 09:33:47;;;;;;;2.25;1.40;;;6.90;90.00;;;;;;5069393;28;20039;-74
2020/12/27 09:36:13;;;;;;;1.70;1.53;;;6.90;89.80;;;;;;5062592;28;20120;-72
2020/12/27 09:38:44;;;;;;;2.63;1.65;;;7.00;89.90;;;;;;5064907;28;20113;-74
2020/12/27 09:41:15;;;;;;;4.75;1.70;;;6.90;89.90;;;;;;5059665;28;20040;-77
2020/12/27 09:43:50;;;;;;;3.53;1.50;;;7.00;89.70;;;;;;5062463;28;20791;-78
2020/12/27 09:46:49;;;;;;;3.08;1.35;;;7.00;89.60;;;;;;5064291;28;20041;-73
2020/12/27 09:49:20;;;;;;;2.60;1.50;;;7.00;89.60;;;;;;5061301;28;20041;-73
2020/12/27 09:51:59;;;;;;;6.95;1.50;;;7.00;89.70;;;;;;5061119;28;20041;-73
2020/12/27 09:54:25;;;;;;;1.77;1.20;;;7.00;89.80;;;;;;5063968;28;20491;-72
2020/12/27 09:56:50;;;;;;;2.17;1.40;;;7.00;89.90;;;;;;5066316;28;20077;-72
2020/12/27 09:59:16;;;;;;;2.58;1.40;;;7.00;89.90;;;;;;5060066;28;20037;-72
2020/12/27 10:01:42;;;;;;;4.22;1.58;;;7.10;89.70;;;;;;5065159;28;20703;-72
2020/12/27 10:04:07;;;;;;;2.83;1.60;;;7.10;89.60;;;;;;5062810;28;20123;-75
2020/12/27 10:06:33;;;;;;;3.92;1.45;;;7.10;89.40;;;;;;5063918;28;20392;-71
2020/12/27 10:08:58;;;;;;;2.75;1.58;;;7.10;89.80;;;;;;5063587;28;20039;-71
2020/12/27 10:11:24;;;;;;;7.20;3.95;;;7.10;89.40;;;;;;5062491;28;20067;-72
2020/12/27 10:13:50;;;;;;;11.68;6.22;;;7.10;89.40;;;;;;5062779;28;20441;-71
2020/12/27 10:16:15;;;;;;;10.98;6.47;;;7.10;89.30;;;;;;5061813;28;20075;-71
2020/12/27 10:18:41;;;;;;;4.50;1.88;;;7.10;89.40;;;;;;5062863;28;20053;-70
2020/12/27 10:21:08;;;;;;;4.55;1.95;;;7.20;89.30;;;;;;5061834;28;20041;-73
2020/12/27 10:23:34;;;;;;;4.38;2.45;;;7.20;89.00;;;;;;5061659;28;20029;-71
2020/12/27 10:26:01;;;;;;;7.43;2.15;;;7.20;89.30;;;;;;5066246;28;20044;-69
2020/12/27 10:28:27;;;;;;;5.28;2.40;;;7.20;89.00;;;;;;5064400;28;20067;-74
2020/12/27 10:30:52;;;;;;;4.47;2.97;;;7.30;89.30;;;;;;5064420;28;20040;-71
2020/12/27 10:33:18;;;;;;;4.00;2.00;;;7.30;89.40;;;;;;5065531;28;20051;-71
2020/12/27 10:35:43;;;;;;;4.47;2.50;;;7.30;89.30;;;;;;5061355;28;20033;-70
2020/12/27 10:38:09;;;;;;;4.70;2.38;;;7.30;89.20;;;;;;5062080;28;20040;-70
2020/12/27 10:40:38;;;;;;;6.10;3.25;;;7.30;89.10;;;;;;5064509;28;20123;-71
2020/12/27 10:43:04;;;;;;;4.22;2.30;;;7.40;89.50;;;;;;5064414;28;20028;-71
2020/12/27 10:45:29;;;;;;;4.78;2.10;;;7.40;89.30;;;;;;5060628;28;20501;-70
2020/12/27 10:47:55;;;;;;;6.63;3.00;;;7.30;89.30;;;;;;5062484;28;20491;-71
2020/12/27 10:50:20;;;;;;;7.30;3.90;;;7.40;89.40;;;;;;5059848;28;20127;-71
2020/12/27 10:52:46;;;;;;;4.93;2.78;;;7.40;89.40;;;;;;5062165;28;20136;-71
2020/12/27 10:55:12;;;;;;;5.93;3.03;;;7.40;89.20;;;;;;5063608;28;20090;-71
2020/12/27 10:57:37;;;;;;;8.88;4.60;;;7.40;89.30;;;;;;5059028;28;20086;-70
2020/12/27 11:00:04;;;;;;;6.05;2.83;;;7.40;89.40;;;;;;5060677;28;20032;-69
2020/12/27 11:02:29;;;;;;;3.92;2.15;;;7.50;89.30;;;;;;5060476;28;20506;-74
2020/12/27 11:04:55;;;;;;;7.50;4.70;;;7.40;89.10;;;;;;5064190;28;20060;-71
2020/12/27 11:07:20;;;;;;;8.68;5.38;;;7.50;89.10;;;;;;5063236;28;20134;-70
2020/12/27 11:09:46;;;;;;;7.47;3.50;;;7.50;89.30;;;;;;5063733;28;20028;-70
2020/12/27 11:12:12;;;;;;;8.60;4.72;;;7.50;89.70;;;;;;5061929;28;20182;-69
2020/12/27 11:14:37;;;;;;;7.57;4.07;;;7.50;89.90;;;;;;5059474;28;20062;-71
2020/12/27 11:17:03;;;;;;;5.88;3.90;;;7.50;89.90;;;;;;5067790;28;20028;-70
2020/12/27 11:19:30;;;;;;;5.72;2.78;;;7.50;90.10;;;;;;5067952;28;20051;-70
2020/12/27 11:21:55;;;;;;;6.35;2.67;;;7.50;90.10;;;;;;5065863;28;20067;-72
2020/12/27 11:24:21;;;;;;;4.45;2.30;;;7.50;90.20;;;;;;5067232;28;20028;-71
2020/12/27 11:26:46;;;;;;;4.07;2.00;;;7.50;90.20;;;;;;5070631;28;20036;-71
2020/12/27 11:29:12;;;;;;;6.45;3.28;;;7.50;90.20;;;;;;5070679;28;20032;-71
2020/12/27 11:31:38;;;;;;;7.47;3.13;;;7.50;90.40;;;;;;5068771;28;20044;-71
2020/12/27 11:34:03;;;;;;;5.75;2.65;;;7.50;90.50;;;;;;5069858;28;20045;-71
2020/12/27 11:36:29;;;;;;;6.80;3.55;;;7.50;90.60;;;;;;5073893;28;20036;-72
2020/12/27 11:38:55;;;;;;;6.28;3.15;;;7.60;90.80;;;;;;5063867;28;20617;-75
2020/12/27 11:41:21;;;;;;;6.38;3.40;;;7.60;90.50;;;;;;5067741;28;20048;-75
2020/12/27 11:43:46;;;;;;;7.57;2.95;;;7.60;90.60;;;;;;5064824;28;20509;-72
2020/12/27 11:46:12;;;;;;;7.53;4.50;;;7.50;90.70;;;;;;5070038;28;20127;-71
2020/12/27 11:48:37;;;;;;;4.28;2.10;;;7.50;91.00;;;;;;5067716;28;20490;-71
2020/12/27 11:51:03;;;;;;;8.38;2.40;;;7.50;91.00;;;;;;5069459;28;20044;-71
2020/12/27 11:53:29;;;;;;;9.52;5.30;;;7.40;91.00;;;;;;5068691;28;20060;-74
2020/12/27 11:55:54;;;;;;;8.75;4.10;;;7.40;90.90;;;;;;5069548;28;20122;-71
2020/12/27 11:58:20;;;;;;;13.20;7.55;;;7.40;91.00;;;;;;5071293;28;20044;-69
2020/12/27 12:00:46;;;;;;;7.22;2.45;;;7.50;91.20;;;;;;5073401;28;20028;-71
2020/12/27 12:03:12;;;;;;;6.65;3.00;;;7.40;91.20;;;;;;5073181;28;20558;-75
2020/12/27 12:05:37;;;;;;;7.47;3.72;;;7.40;91.20;;;;;;5068585;28;20058;-71
2020/12/27 12:08:04;;;;;;;4.13;2.20;;;7.40;91.20;;;;;;5070470;28;20102;-71
2020/12/27 12:10:30;;;;;;;4.40;2.00;;;7.40;90.80;;;;;;5068547;28;20123;-71
2020/12/27 12:12:55;;;;;;;3.85;1.65;;;7.30;89.80;;;;;;5069918;28;20039;-71
2020/12/27 12:15:21;;;;;;;3.10;1.27;;;7.10;89.30;;;;;;5070668;28;20037;-71
2020/12/27 12:17:47;;;;;;;5.70;1.90;;;7.00;89.10;;;;;;5074649;28;20041;-74
2020/12/27 12:22:56;;;;;;;6.70;2.83;;;6.90;89.20;;;;;;5071994;28;20040;-73
2020/12/27 12:25:22;;;;;;;11.75;5.00;;;6.80;89.70;;;;;;5072273;28;20384;-70
2020/12/27 12:27:48;;;;;;;8.57;5.95;;;6.90;89.70;;;;;;5067050;28;20024;-71
2020/12/27 12:30:13;;;;;;;5.25;3.00;;;6.90;89.80;;;;;;5066372;28;20035;-70
2020/12/27 12:32:39;;;;;;;7.10;4.20;;;6.90;89.90;;;;;;5069246;28;20063;-71
2020/12/27 12:35:05;;;;;;;5.70;3.40;;;6.90;90.00;;;;;;5064958;28;20467;-72
2020/12/27 12:37:30;;;;;;;6.47;3.83;;;6.90;90.00;;;;;;5059471;28;20056;-71
2020/12/27 12:39:56;;;;;;;6.32;3.08;;;6.90;90.10;;;;;;5067772;28;20036;-70
2020/12/27 12:42:22;;;;;;;7.18;3.30;;;6.90;90.30;;;;;;5065748;28;20320;-71
2020/12/27 12:44:48;;;;;;;7.97;3.33;;;6.80;90.40;;;;;;5067287;28;20032;-71
2020/12/27 12:47:13;;;;;;;11.75;6.35;;;6.80;90.20;;;;;;5067069;28;20110;-71
2020/12/27 12:49:39;;;;;;;10.30;5.47;;;6.90;90.20;;;;;;5068431;28;20040;-74
2020/12/27 12:52:04;;;;;;;10.57;5.57;;;6.90;90.10;;;;;;5041522;28;20380;-71
2020/12/27 12:54:30;;;;;;;6.00;2.53;;;6.80;90.20;;;;;;5048712;28;20459;-74
2020/12/27 12:56:56;;;;;;;6.22;3.03;;;6.80;90.10;;;;;;5053007;28;20067;-72
2020/12/27 12:59:21;;;;;;;4.10;2.47;;;6.80;90.00;;;;;;5053914;28;20037;-72
2020/12/27 13:01:50;;;;;;;7.78;3.97;;;6.80;90.00;;;;;;5054127;28;20028;-74